sensor_id;sensor_type;location;lat;lon;timestamp;pressure;altitude;pressure_sealevel;temperature;humidity
7668;BME280;3876;42.204;24.686;2023-05-15T00:01:02;99661.50;;;15.11;100.00
7668;BME280;3876;42.204;24.686;2023-05-15T00:03:28;99649.50;;;15.10;100.00
7668;BME280;3876;42.204;24.686;2023-05-15T00:05:55;99644.47;;;15.07;100.00
7668;BME280;3876;42.204;24.686;2023-05-15T00:08:25;99647.13;;;15.05;100.00
7668;BME280;3876;42.204;24.686;2023-05-15T00:10:51;99646.47;;;15.00;100.00
7668;BME280;3876;42.204;24.686;2023-05-15T00:13:18;99642.22;;;14.99;100.00
7668;BME280;3876;42.204;24.686;2023-05-15T00:15:46;99641.41;;;14.99;100.00
7668;BME280;3876;42.204;24.686;2023-05-15T00:18:13;99638.88;;;14.97;100.00
7668;BME280;3876;42.204;24.686;2023-05-15T00:20:40;99636.25;;;14.99;100.00
7668;BME280;3876;42.204;24.686;2023-05-15T00:23:07;99638.81;;;14.99;100.00
7668;BME280;3876;42.204;24.686;2023-05-15T00:25:33;99632.88;;;14.97;100.00
7668;BME280;3876;42.204;24.686;2023-05-15T00:28:00;99633.78;;;14.96;100.00
7668;BME280;3876;42.204;24.686;2023-05-15T00:30:27;99641.53;;;14.96;100.00
7668;BME280;3876;42.204;24.686;2023-05-15T00:32:55;99618.34;;;14.76;100.00
7668;BME280;3876;42.204;24.686;2023-05-15T00:35:22;99645.16;;;14.92;100.00
7668;BME280;3876;42.204;24.686;2023-05-15T00:37:49;99642.72;;;14.89;100.00
7668;BME280;3876;42.204;24.686;2023-05-15T00:40:20;99635.94;;;14.86;100.00
7668;BME280;3876;42.204;24.686;2023-05-15T00:42:47;99628.25;;;14.85;100.00
7668;BME280;3876;42.204;24.686;2023-05-15T00:45:14;99624.13;;;14.81;100.00
7668;BME280;3876;42.204;24.686;2023-05-15T00:47:42;99619.75;;;14.83;100.00
7668;BME280;3876;42.204;24.686;2023-05-15T00:50:10;99609.47;;;14.81;100.00
7668;BME280;3876;42.204;24.686;2023-05-15T00:52:37;99602.72;;;14.79;100.00
7668;BME280;3876;42.204;24.686;2023-05-15T00:55:05;99599.47;;;14.73;100.00
7668;BME280;3876;42.204;24.686;2023-05-15T00:57:32;99598.84;;;14.68;100.00
7668;BME280;3876;42.204;24.686;2023-05-15T01:00:01;99592.09;;;14.66;100.00
7668;BME280;3876;42.204;24.686;2023-05-15T01:02:29;99584.41;;;14.64;100.00
7668;BME280;3876;42.204;24.686;2023-05-15T01:04:56;99576.66;;;14.64;100.00
7668;BME280;3876;42.204;24.686;2023-05-15T01:07:24;99571.59;;;14.63;100.00
7668;BME280;3876;42.204;24.686;2023-05-15T01:09:51;99560.41;;;14.62;100.00
7668;BME280;3876;42.204;24.686;2023-05-15T01:12:20;99566.47;;;14.61;100.00
7668;BME280;3876;42.204;24.686;2023-05-15T01:14:49;99561.41;;;14.60;100.00
7668;BME280;3876;42.204;24.686;2023-05-15T01:17:15;99548.50;;;14.60;100.00
7668;BME280;3876;42.204;24.686;2023-05-15T01:19:43;99550.38;;;14.56;100.00
7668;BME280;3876;42.204;24.686;2023-05-15T01:22:31;99551.41;;;14.52;100.00
7668;BME280;3876;42.204;24.686;2023-05-15T01:28:14;99541.97;;;14.51;100.00
7668;BME280;3876;42.204;24.686;2023-05-15T01:30:43;99548.31;;;14.44;100.00
7668;BME280;3876;42.204;24.686;2023-05-15T01:33:17;99542.53;;;14.39;100.00
7668;BME280;3876;42.204;24.686;2023-05-15T01:35:47;99547.81;;;14.36;100.00
7668;BME280;3876;42.204;24.686;2023-05-15T01:38:21;99559.03;;;14.35;100.00
7668;BME280;3876;42.204;24.686;2023-05-15T01:40:55;99565.88;;;14.36;100.00
7668;BME280;3876;42.204;24.686;2023-05-15T01:43:27;99569.22;;;14.38;100.00
7668;BME280;3876;42.204;24.686;2023-05-15T01:45:55;99555.50;;;14.38;100.00
7668;BME280;3876;42.204;24.686;2023-05-15T01:48:24;99551.28;;;14.35;100.00
7668;BME280;3876;42.204;24.686;2023-05-15T01:50:53;99525.25;;;14.21;100.00
7668;BME280;3876;42.204;24.686;2023-05-15T01:53:21;99499.59;;;13.98;100.00
7668;BME280;3876;42.204;24.686;2023-05-15T01:55:49;99505.34;;;14.04;100.00
7668;BME280;3876;42.204;24.686;2023-05-15T01:58:17;99491.22;;;13.93;100.00
7668;BME280;3876;42.204;24.686;2023-05-15T02:00:46;99477.56;;;13.91;100.00
7668;BME280;3876;42.204;24.686;2023-05-15T02:03:14;99487.81;;;13.92;100.00
7668;BME280;3876;42.204;24.686;2023-05-15T02:05:41;99498.44;;;13.85;100.00
7668;BME280;3876;42.204;24.686;2023-05-15T02:08:09;99525.91;;;13.86;100.00
7668;BME280;3876;42.204;24.686;2023-05-15T02:10:38;99540.50;;;13.85;100.00
7668;BME280;3876;42.204;24.686;2023-05-15T02:13:07;99542.06;;;13.89;100.00
7668;BME280;3876;42.204;24.686;2023-05-15T02:15:34;99526.41;;;13.94;100.00
7668;BME280;3876;42.204;24.686;2023-05-15T02:18:03;99520.34;;;13.95;100.00
7668;BME280;3876;42.204;24.686;2023-05-15T02:20:30;99544.31;;;13.97;100.00
7668;BME280;3876;42.204;24.686;2023-05-15T02:22:57;99538.06;;;14.02;100.00
7668;BME280;3876;42.204;24.686;2023-05-15T02:25:32;99508.53;;;14.09;100.00
7668;BME280;3876;42.204;24.686;2023-05-15T02:28:00;99506.81;;;14.10;100.00
7668;BME280;3876;42.204;24.686;2023-05-15T02:30:36;99500.75;;;14.11;100.00
7668;BME280;3876;42.204;24.686;2023-05-15T02:33:11;99513.00;;;14.06;100.00
7668;BME280;3876;42.204;24.686;2023-05-15T02:35:43;99537.47;;;14.16;100.00
7668;BME280;3876;42.204;24.686;2023-05-15T02:38:16;99524.59;;;14.16;100.00
7668;BME280;3876;42.204;24.686;2023-05-15T02:40:44;99509.81;;;14.19;100.00
7668;BME280;3876;42.204;24.686;2023-05-15T02:43:14;99515.81;;;14.20;100.00
7668;BME280;3876;42.204;24.686;2023-05-15T02:45:44;99509.81;;;14.19;100.00
7668;BME280;3876;42.204;24.686;2023-05-15T02:48:14;99493.47;;;14.20;100.00
7668;BME280;3876;42.204;24.686;2023-05-15T02:50:42;99496.75;;;14.24;100.00
7668;BME280;3876;42.204;24.686;2023-05-15T02:53:09;99510.53;;;14.23;100.00
7668;BME280;3876;42.204;24.686;2023-05-15T02:55:38;99510.53;;;14.23;100.00
7668;BME280;3876;42.204;24.686;2023-05-15T02:58:05;99497.59;;;14.25;100.00
7668;BME280;3876;42.204;24.686;2023-05-15T03:00:32;99493.25;;;14.25;100.00
7668;BME280;3876;42.204;24.686;2023-05-15T03:02:58;99496.88;;;14.21;100.00
7668;BME280;3876;42.204;24.686;2023-05-15T03:05:26;99514.97;;;14.19;100.00
7668;BME280;3876;42.204;24.686;2023-05-15T03:07:53;99513.25;;;14.20;100.00
7668;BME280;3876;42.204;24.686;2023-05-15T03:10:20;99519.25;;;14.20;100.00
7668;BME280;3876;42.204;24.686;2023-05-15T03:12:48;99526.91;;;14.22;100.00
7668;BME280;3876;42.204;24.686;2023-05-15T03:15:15;99529.59;;;14.19;100.00
7668;BME280;3876;42.204;24.686;2023-05-15T03:17:42;99504.66;;;14.19;100.00
7668;BME280;3876;42.204;24.686;2023-05-15T03:20:09;99507.34;;;14.18;100.00
7668;BME280;3876;42.204;24.686;2023-05-15T03:22:37;99516.84;;;14.16;100.00
7668;BME280;3876;42.204;24.686;2023-05-15T03:25:04;99513.44;;;14.15;100.00
7668;BME280;3876;42.204;24.686;2023-05-15T03:27:31;99500.50;;;14.17;100.00
7668;BME280;3876;42.204;24.686;2023-05-15T03:29:58;99500.63;;;14.14;100.00
7668;BME280;3876;42.204;24.686;2023-05-15T03:32:25;99510.84;;;14.15;100.00
7668;BME280;3876;42.204;24.686;2023-05-15T03:34:51;99507.38;;;14.16;100.00
7668;BME280;3876;42.204;24.686;2023-05-15T03:37:18;99499.47;;;14.21;100.00
7668;BME280;3876;42.204;24.686;2023-05-15T03:39:46;99508.94;;;14.20;100.00
7668;BME280;3876;42.204;24.686;2023-05-15T03:42:13;99483.47;;;14.13;100.00
7668;BME280;3876;42.204;24.686;2023-05-15T03:44:39;99500.22;;;14.23;100.00
7668;BME280;3876;42.204;24.686;2023-05-15T03:47:06;99492.09;;;14.12;100.00
7668;BME280;3876;42.204;24.686;2023-05-15T03:49:33;99498.53;;;14.22;100.00
7668;BME280;3876;42.204;24.686;2023-05-15T03:51:59;99489.63;;;14.29;100.00
7668;BME280;3876;42.204;24.686;2023-05-15T03:54:26;99501.78;;;14.27;100.00
7668;BME280;3876;42.204;24.686;2023-05-15T03:56:54;99510.28;;;14.29;100.00
7668;BME280;3876;42.204;24.686;2023-05-15T03:59:22;99499.91;;;14.31;100.00
7668;BME280;3876;42.204;24.686;2023-05-15T04:01:48;99511.84;;;14.33;100.00
7668;BME280;3876;42.204;24.686;2023-05-15T04:04:15;99516.81;;;14.38;100.00
7668;BME280;3876;42.204;24.686;2023-05-15T04:06:42;99520.34;;;14.35;100.00
7668;BME280;3876;42.204;24.686;2023-05-15T04:09:09;99513.53;;;14.34;100.00
7668;BME280;3876;42.204;24.686;2023-05-15T04:11:36;99493.25;;;14.25;100.00
7668;BME280;3876;42.204;24.686;2023-05-15T04:14:04;99501.41;;;14.36;100.00
7668;BME280;3876;42.204;24.686;2023-05-15T04:16:30;99491.66;;;14.43;100.00
7668;BME280;3876;42.204;24.686;2023-05-15T04:18:57;99471.28;;;14.37;100.00
7668;BME280;3876;42.204;24.686;2023-05-15T04:21:24;99490.47;;;14.50;100.00
7668;BME280;3876;42.204;24.686;2023-05-15T04:23:50;99483.44;;;14.53;100.00
7668;BME280;3876;42.204;24.686;2023-05-15T04:26:17;99490.13;;;14.57;100.00
7668;BME280;3876;42.204;24.686;2023-05-15T04:28:44;99488.47;;;14.56;100.00
7668;BME280;3876;42.204;24.686;2023-05-15T04:31:13;99514.97;;;14.60;100.00
7668;BME280;3876;42.204;24.686;2023-05-15T04:33:40;99515.91;;;14.57;100.00
7668;BME280;3876;42.204;24.686;2023-05-15T04:36:08;99497.09;;;14.55;100.00
7668;BME280;3876;42.204;24.686;2023-05-15T04:38:35;99501.22;;;14.59;100.00
7668;BME280;3876;42.204;24.686;2023-05-15T04:41:02;99505.34;;;14.63;100.00
7668;BME280;3876;42.204;24.686;2023-05-15T04:43:29;99511.19;;;14.67;100.00
7668;BME280;3876;42.204;24.686;2023-05-15T04:45:56;99513.56;;;14.71;100.00
7668;BME280;3876;42.204;24.686;2023-05-15T04:48:24;99513.28;;;14.78;100.00
7668;BME280;3876;42.204;24.686;2023-05-15T04:50:50;99518.16;;;14.84;100.00
7668;BME280;3876;42.204;24.686;2023-05-15T04:53:17;99506.03;;;14.86;100.00
7668;BME280;3876;42.204;24.686;2023-05-15T04:55:44;99513.66;;;14.89;100.00
7668;BME280;3876;42.204;24.686;2023-05-15T04:58:10;99521.09;;;14.95;100.00
7668;BME280;3876;42.204;24.686;2023-05-15T05:00:38;99524.28;;;15.00;100.00
7668;BME280;3876;42.204;24.686;2023-05-15T05:03:04;99521.50;;;15.04;100.00
7668;BME280;3876;42.204;24.686;2023-05-15T05:05:32;99517.34;;;15.02;100.00
7668;BME280;3876;42.204;24.686;2023-05-15T05:07:59;99529.47;;;15.00;100.00
7668;BME280;3876;42.204;24.686;2023-05-15T05:10:26;99538.84;;;15.02;100.00
7668;BME280;3876;42.204;24.686;2023-05-15T05:12:52;99526.69;;;15.04;100.00
7668;BME280;3876;42.204;24.686;2023-05-15T05:15:19;99539.34;;;15.09;100.00
7668;BME280;3876;42.204;24.686;2023-05-15T05:17:46;99528.78;;;15.15;100.00
7668;BME280;3876;42.204;24.686;2023-05-15T05:20:12;99521.63;;;15.20;100.00
7668;BME280;3876;42.204;24.686;2023-05-15T05:22:41;99526.50;;;15.26;100.00
7668;BME280;3876;42.204;24.686;2023-05-15T05:25:08;99532.56;;;15.25;100.00
7668;BME280;3876;42.204;24.686;2023-05-15T05:27:34;99525.31;;;15.33;100.00
7668;BME280;3876;42.204;24.686;2023-05-15T05:30:02;99525.78;;;15.41;100.00
7668;BME280;3876;42.204;24.686;2023-05-15T05:32:29;99533.31;;;15.46;100.00
7668;BME280;3876;42.204;24.686;2023-05-15T05:34:55;99532.16;;;15.53;100.00
7668;BME280;3876;42.204;24.686;2023-05-15T05:37:22;99525.78;;;15.60;100.00
7668;BME280;3876;42.204;24.686;2023-05-15T05:39:50;99513.06;;;15.55;100.00
7668;BME280;3876;42.204;24.686;2023-05-15T05:42:17;99540.28;;;15.62;100.00
7668;BME280;3876;42.204;24.686;2023-05-15T05:44:43;99536.50;;;15.69;100.00
7668;BME280;3876;42.204;24.686;2023-05-15T05:47:10;99533.81;;;15.71;100.00
7668;BME280;3876;42.204;24.686;2023-05-15T05:49:37;99531.00;;;15.58;100.00
7668;BME280;3876;42.204;24.686;2023-05-15T05:52:05;99536.56;;;15.68;100.00
7668;BME280;3876;42.204;24.686;2023-05-15T05:54:32;99540.53;;;15.75;100.00
7668;BME280;3876;42.204;24.686;2023-05-15T05:57:00;99548.22;;;15.77;100.00
7668;BME280;3876;42.204;24.686;2023-05-15T05:59:27;99546.38;;;15.79;100.00
7668;BME280;3876;42.204;24.686;2023-05-15T06:01:54;99542.75;;;15.83;100.00
7668;BME280;3876;42.204;24.686;2023-05-15T06:04:21;99540.75;;;15.88;100.00
7668;BME280;3876;42.204;24.686;2023-05-15T06:06:47;99538.72;;;15.94;100.00
7668;BME280;3876;42.204;24.686;2023-05-15T06:09:15;99527.78;;;15.89;100.00
7668;BME280;3876;42.204;24.686;2023-05-15T06:11:42;99538.66;;;15.96;100.00
7668;BME280;3876;42.204;24.686;2023-05-15T06:14:11;99541.06;;;15.99;100.00
7668;BME280;3876;42.204;24.686;2023-05-15T06:16:38;99550.59;;;16.15;100.00
7668;BME280;3876;42.204;24.686;2023-05-15T06:19:04;99549.44;;;16.21;100.00
7668;BME280;3876;42.204;24.686;2023-05-15T06:21:32;99541.56;;;16.22;100.00
7668;BME280;3876;42.204;24.686;2023-05-15T06:23:58;99530.25;;;16.25;100.00
7668;BME280;3876;42.204;24.686;2023-05-15T06:26:25;99529.94;;;16.31;100.00
7668;BME280;3876;42.204;24.686;2023-05-15T06:28:52;99516.22;;;16.29;100.00
7668;BME280;3876;42.204;24.686;2023-05-15T06:31:20;99511.06;;;16.29;100.00
7668;BME280;3876;42.204;24.686;2023-05-15T06:33:46;99509.31;;;16.29;100.00
7668;BME280;3876;42.204;24.686;2023-05-15T06:36:13;99511.81;;;16.31;100.00
7668;BME280;3876;42.204;24.686;2023-05-15T06:38:40;99512.16;;;16.25;100.00
7668;BME280;3876;42.204;24.686;2023-05-15T06:41:06;99526.00;;;16.24;100.00
7668;BME280;3876;42.204;24.686;2023-05-15T06:43:33;99533.59;;;16.27;100.00
7668;BME280;3876;42.204;24.686;2023-05-15T06:46:00;99539.28;;;16.34;100.00
7668;BME280;3876;42.204;24.686;2023-05-15T06:48:28;99534.50;;;16.26;100.00
7668;BME280;3876;42.204;24.686;2023-05-15T06:50:54;99532.22;;;16.20;100.00
7668;BME280;3876;42.204;24.686;2023-05-15T06:53:21;99515.19;;;16.16;100.00
7668;BME280;3876;42.204;24.686;2023-05-15T06:55:48;99528.88;;;16.18;100.00
7668;BME280;3876;42.204;24.686;2023-05-15T06:58:14;99532.06;;;16.23;100.00
7668;BME280;3876;42.204;24.686;2023-05-15T07:00:42;99519.91;;;16.25;100.00
7668;BME280;3876;42.204;24.686;2023-05-15T07:03:09;99515.03;;;16.19;100.00
7668;BME280;3876;42.204;24.686;2023-05-15T07:05:37;99524.16;;;16.26;100.00
7668;BME280;3876;42.204;24.686;2023-05-15T07:08:04;99524.91;;;16.28;100.00
7668;BME280;3876;42.204;24.686;2023-05-15T07:10:31;99518.91;;;16.27;100.00
7668;BME280;3876;42.204;24.686;2023-05-15T07:12:57;99517.16;;;16.28;100.00
7668;BME280;3876;42.204;24.686;2023-05-15T07:15:24;99514.56;;;16.28;100.00
7668;BME280;3876;42.204;24.686;2023-05-15T07:17:51;99527.50;;;16.28;100.00
7668;BME280;3876;42.204;24.686;2023-05-15T07:20:17;99526.25;;;16.35;100.00
7668;BME280;3876;42.204;24.686;2023-05-15T07:22:45;99515.69;;;16.40;100.00
7668;BME280;3876;42.204;24.686;2023-05-15T07:25:12;99515.28;;;16.47;100.00
7668;BME280;3876;42.204;24.686;2023-05-15T07:27:39;99518.34;;;16.55;100.00
7668;BME280;3876;42.204;24.686;2023-05-15T07:30:07;99482.41;;;16.49;100.00
7668;BME280;3876;42.204;24.686;2023-05-15T07:32:33;99503.09;;;16.49;100.00
7668;BME280;3876;42.204;24.686;2023-05-15T07:35:00;99499.94;;;16.44;100.00
7668;BME280;3876;42.204;24.686;2023-05-15T07:37:28;99505.91;;;16.45;100.00
7668;BME280;3876;42.204;24.686;2023-05-15T07:39:56;99498.59;;;16.53;100.00
7668;BME280;3876;42.204;24.686;2023-05-15T07:42:24;99498.47;;;16.56;100.00
7668;BME280;3876;42.204;24.686;2023-05-15T07:44:50;99502.16;;;16.67;100.00
7668;BME280;3876;42.204;24.686;2023-05-15T07:47:17;99503.16;;;16.80;100.00
7668;BME280;3876;42.204;24.686;2023-05-15T07:49:44;99500.09;;;16.90;100.00
7668;BME280;3876;42.204;24.686;2023-05-15T07:52:10;99499.16;;;16.91;100.00
7668;BME280;3876;42.204;24.686;2023-05-15T07:54:38;99504.44;;;16.73;100.00
7668;BME280;3876;42.204;24.686;2023-05-15T07:57:07;99508.16;;;16.68;100.00
7668;BME280;3876;42.204;24.686;2023-05-15T07:59:34;99504.09;;;16.64;100.00
7668;BME280;3876;42.204;24.686;2023-05-15T08:02:01;99506.25;;;16.54;100.00
7668;BME280;3876;42.204;24.686;2023-05-15T08:04:28;99519.19;;;16.54;100.00
7668;BME280;3876;42.204;24.686;2023-05-15T08:06:54;99533.97;;;16.69;100.00
7668;BME280;3876;42.204;24.686;2023-05-15T08:09:21;99541.97;;;16.65;100.00
7668;BME280;3876;42.204;24.686;2023-05-15T08:11:48;99553.09;;;16.67;100.00
7668;BME280;3876;42.204;24.686;2023-05-15T08:14:16;99543.41;;;16.70;100.00
7668;BME280;3876;42.204;24.686;2023-05-15T08:16:42;99534.84;;;16.86;100.00
7668;BME280;3876;42.204;24.686;2023-05-15T08:19:09;99535.34;;;16.92;100.00
7668;BME280;3876;42.204;24.686;2023-05-15T08:21:36;99523.41;;;17.05;100.00
7668;BME280;3876;42.204;24.686;2023-05-15T08:24:04;99521.88;;;17.17;100.00
7668;BME280;3876;42.204;24.686;2023-05-15T08:26:30;99517.19;;;17.23;100.00
7668;BME280;3876;42.204;24.686;2023-05-15T08:28:57;99520.84;;;17.35;100.00
7668;BME280;3876;42.204;24.686;2023-05-15T08:31:25;99523.22;;;17.24;100.00
7668;BME280;3876;42.204;24.686;2023-05-15T08:33:52;99522.53;;;17.36;100.00
7668;BME280;3876;42.204;24.686;2023-05-15T08:36:18;99528.41;;;17.24;100.00
7668;BME280;3876;42.204;24.686;2023-05-15T08:38:46;99525.56;;;17.13;100.00
7668;BME280;3876;42.204;24.686;2023-05-15T08:41:23;99511.88;;;17.11;100.00
7668;BME280;3876;42.204;24.686;2023-05-15T08:43:54;99517.03;;;16.95;100.00
7668;BME280;3876;42.204;24.686;2023-05-15T08:46:22;99517.56;;;16.86;100.00
7668;BME280;3876;42.204;24.686;2023-05-15T08:48:50;99506.59;;;16.97;100.00
7668;BME280;3876;42.204;24.686;2023-05-15T08:51:19;99494.47;;;16.97;100.00
7668;BME280;3876;42.204;24.686;2023-05-15T08:53:46;99488.91;;;17.05;100.00
7668;BME280;3876;42.204;24.686;2023-05-15T08:56:13;99504.34;;;17.22;100.00
7668;BME280;3876;42.204;24.686;2023-05-15T08:58:40;99502.81;;;17.33;100.00
7668;BME280;3876;42.204;24.686;2023-05-15T09:01:07;99499.13;;;17.38;100.00
7668;BME280;3876;42.204;24.686;2023-05-15T09:03:34;99485.41;;;17.36;100.00
7668;BME280;3876;42.204;24.686;2023-05-15T09:06:04;99486.06;;;17.39;100.00
7668;BME280;3876;42.204;24.686;2023-05-15T09:08:32;99492.59;;;17.46;100.00
7668;BME280;3876;42.204;24.686;2023-05-15T09:11:01;99478.91;;;17.44;100.00
7668;BME280;3876;42.204;24.686;2023-05-15T09:13:28;99476.69;;;17.52;100.00
7668;BME280;3876;42.204;24.686;2023-05-15T09:15:55;99470.19;;;17.45;100.00
7668;BME280;3876;42.204;24.686;2023-05-15T09:18:22;99480.19;;;17.51;100.00
7668;BME280;3876;42.204;24.686;2023-05-15T09:20:49;99475.00;;;17.51;100.00
7668;BME280;3876;42.204;24.686;2023-05-15T09:23:25;99473.19;;;17.53;100.00
7668;BME280;3876;42.204;24.686;2023-05-15T09:25:52;99471.94;;;17.60;100.00
7668;BME280;3876;42.204;24.686;2023-05-15T09:28:25;99474.69;;;17.42;100.00
7668;BME280;3876;42.204;24.686;2023-05-15T09:30:58;99476.88;;;17.49;100.00
7668;BME280;3876;42.204;24.686;2023-05-15T09:33:30;99471.84;;;17.62;100.00
7668;BME280;3876;42.204;24.686;2023-05-15T09:35:57;99475.38;;;17.61;100.00
7668;BME280;3876;42.204;24.686;2023-05-15T09:38:25;99467.41;;;17.48;100.00
7668;BME280;3876;42.204;24.686;2023-05-15T09:41:00;99473.72;;;17.44;100.00
7668;BME280;3876;42.204;24.686;2023-05-15T09:43:27;99464.16;;;17.60;100.00
7668;BME280;3876;42.204;24.686;2023-05-15T09:45:54;99462.13;;;17.65;100.00
7668;BME280;3876;42.204;24.686;2023-05-15T09:48:21;99462.41;;;17.61;100.00
7668;BME280;3876;42.204;24.686;2023-05-15T09:50:48;99460.63;;;17.61;100.00
7668;BME280;3876;42.204;24.686;2023-05-15T09:53:15;99446.28;;;17.56;100.00
7668;BME280;3876;42.204;24.686;2023-05-15T09:55:43;99450.25;;;17.61;100.00
7668;BME280;3876;42.204;24.686;2023-05-15T09:58:11;99430.03;;;17.52;100.00
7668;BME280;3876;42.204;24.686;2023-05-15T10:00:39;99425.59;;;17.54;100.00
7668;BME280;3876;42.204;24.686;2023-05-15T10:03:07;99421.19;;;17.56;100.00
7668;BME280;3876;42.204;24.686;2023-05-15T10:05:34;99434.72;;;17.61;100.00
7668;BME280;3876;42.204;24.686;2023-05-15T10:08:01;99428.81;;;17.73;100.00
7668;BME280;3876;42.204;24.686;2023-05-15T10:10:28;99423.09;;;17.82;100.00
7668;BME280;3876;42.204;24.686;2023-05-15T10:12:58;99430.69;;;17.86;100.00
7668;BME280;3876;42.204;24.686;2023-05-15T10:15:28;99419.44;;;17.71;100.00
7668;BME280;3876;42.204;24.686;2023-05-15T10:17:55;99415.09;;;17.71;100.00
7668;BME280;3876;42.204;24.686;2023-05-15T10:20:23;99411.59;;;17.72;100.00
7668;BME280;3876;42.204;24.686;2023-05-15T10:22:52;99411.00;;;17.67;100.00
7668;BME280;3876;42.204;24.686;2023-05-15T10:25:26;99408.53;;;17.66;100.00
7668;BME280;3876;42.204;24.686;2023-05-15T10:27:54;99401.78;;;17.63;100.00
7668;BME280;3876;42.204;24.686;2023-05-15T10:30:24;99399.53;;;17.71;100.00
7668;BME280;3876;42.204;24.686;2023-05-15T10:32:52;99404.19;;;17.80;100.00
7668;BME280;3876;42.204;24.686;2023-05-15T10:35:20;99348.44;;;17.59;100.00
7668;BME280;3876;42.204;24.686;2023-05-15T10:37:48;99402.44;;;17.95;100.00
7668;BME280;3876;42.204;24.686;2023-05-15T10:40:16;99393.09;;;17.93;100.00
7668;BME280;3876;42.204;24.686;2023-05-15T10:42:44;99401.69;;;18.07;100.00
7668;BME280;3876;42.204;24.686;2023-05-15T10:45:12;99394.94;;;18.19;100.00
7668;BME280;3876;42.204;24.686;2023-05-15T10:47:42;99389.19;;;18.28;100.00
7668;BME280;3876;42.204;24.686;2023-05-15T10:50:11;99402.81;;;18.31;100.00
7668;BME280;3876;42.204;24.686;2023-05-15T10:52:38;99394.19;;;18.31;100.00
7668;BME280;3876;42.204;24.686;2023-05-15T10:55:07;99391.22;;;18.23;100.00
7668;BME280;3876;42.204;24.686;2023-05-15T10:57:37;99389.91;;;18.44;100.00
7668;BME280;3876;42.204;24.686;2023-05-15T11:00:23;99387.84;;;18.49;100.00
7668;BME280;3876;42.204;24.686;2023-05-15T11:02:52;99388.97;;;18.59;100.00
7668;BME280;3876;42.204;24.686;2023-05-15T11:05:21;99384.84;;;18.69;100.00
7668;BME280;3876;42.204;24.686;2023-05-15T11:08:22;99391.22;;;18.78;100.00
7668;BME280;3876;42.204;24.686;2023-05-15T11:10:51;99393.81;;;18.78;100.00
7668;BME280;3876;42.204;24.686;2023-05-15T11:13:18;99379.22;;;18.63;100.00
7668;BME280;3876;42.204;24.686;2023-05-15T11:15:46;99379.84;;;18.66;100.00
7668;BME280;3876;42.204;24.686;2023-05-15T11:18:15;99401.03;;;18.60;100.00
7668;BME280;3876;42.204;24.686;2023-05-15T11:21:04;99395.19;;;18.57;100.00
7668;BME280;3876;42.204;24.686;2023-05-15T11:23:37;99402.22;;;18.55;100.00
7668;BME280;3876;42.204;24.686;2023-05-15T11:26:05;99392.50;;;18.44;100.00
7668;BME280;3876;42.204;24.686;2023-05-15T11:28:40;99387.47;;;18.55;100.00
7668;BME280;3876;42.204;24.686;2023-05-15T11:31:07;99392.09;;;18.64;100.00
7668;BME280;3876;42.204;24.686;2023-05-15T11:33:37;99384.84;;;18.69;100.00
7668;BME280;3876;42.204;24.686;2023-05-15T11:36:04;99379.06;;;18.78;100.00
7668;BME280;3876;42.204;24.686;2023-05-15T11:38:36;99387.03;;;18.90;100.00
7668;BME280;3876;42.204;24.686;2023-05-15T11:41:16;99401.66;;;18.91;99.56
7668;BME280;3876;42.204;24.686;2023-05-15T11:43:43;99402.59;;;18.90;98.51
7668;BME280;3876;42.204;24.686;2023-05-15T11:46:11;99397.81;;;18.83;100.00
7668;BME280;3876;42.204;24.686;2023-05-15T11:48:40;99399.22;;;18.75;99.84
7668;BME280;3876;42.204;24.686;2023-05-15T11:51:16;99385.94;;;18.79;99.91
7668;BME280;3876;42.204;24.686;2023-05-15T11:53:44;99388.34;;;18.82;100.00
7668;BME280;3876;42.204;24.686;2023-05-15T11:56:16;99377.41;;;18.77;100.00
7668;BME280;3876;42.204;24.686;2023-05-15T11:58:44;99387.41;;;18.83;99.69
7668;BME280;3876;42.204;24.686;2023-05-15T12:01:13;99376.88;;;18.72;100.00
7668;BME280;3876;42.204;24.686;2023-05-15T12:03:41;99368.88;;;18.75;99.30
7668;BME280;3876;42.204;24.686;2023-05-15T12:06:09;99380.75;;;18.79;100.00
7668;BME280;3876;42.204;24.686;2023-05-15T12:08:36;99396.78;;;18.86;100.00
7668;BME280;3876;42.204;24.686;2023-05-15T12:11:04;99408.38;;;18.80;100.00
7668;BME280;3876;42.204;24.686;2023-05-15T12:13:32;99400.69;;;18.79;100.00
7668;BME280;3876;42.204;24.686;2023-05-15T12:16:00;99402.06;;;18.84;100.00
7668;BME280;3876;42.204;24.686;2023-05-15T12:18:27;99409.84;;;18.84;100.00
7668;BME280;3876;42.204;24.686;2023-05-15T12:20:55;99408.63;;;18.90;100.00
7668;BME280;3876;42.204;24.686;2023-05-15T12:23:23;99419.19;;;18.87;100.00
7668;BME280;3876;42.204;24.686;2023-05-15T12:25:52;99416.72;;;18.85;100.00
7668;BME280;3876;42.204;24.686;2023-05-15T12:28:22;99397.88;;;18.82;100.00
7668;BME280;3876;42.204;24.686;2023-05-15T12:30:49;99411.81;;;18.81;100.00
7668;BME280;3876;42.204;24.686;2023-05-15T12:33:17;99414.25;;;18.70;100.00
7668;BME280;3876;42.204;24.686;2023-05-15T12:35:49;99408.75;;;18.74;100.00
7668;BME280;3876;42.204;24.686;2023-05-15T12:38:20;99405.44;;;18.72;100.00
7668;BME280;3876;42.204;24.686;2023-05-15T12:40:50;99402.13;;;18.70;99.61
7668;BME280;3876;42.204;24.686;2023-05-15T12:43:18;99389.84;;;18.72;100.00
7668;BME280;3876;42.204;24.686;2023-05-15T12:45:45;99387.59;;;18.80;100.00
7668;BME280;3876;42.204;24.686;2023-05-15T12:48:14;99374.13;;;18.88;100.00
7668;BME280;3876;42.204;24.686;2023-05-15T12:50:43;99371.44;;;18.90;100.00
7668;BME280;3876;42.204;24.686;2023-05-15T12:53:12;99371.03;;;18.96;99.97
7668;BME280;3876;42.204;24.686;2023-05-15T12:55:43;99368.75;;;19.04;100.00
7668;BME280;3876;42.204;24.686;2023-05-15T12:58:11;99361.72;;;19.06;100.00
7668;BME280;3876;42.204;24.686;2023-05-15T13:00:40;99365.97;;;19.07;100.00
7668;BME280;3876;42.204;24.686;2023-05-15T13:03:08;99364.31;;;19.06;100.00
7668;BME280;3876;42.204;24.686;2023-05-15T13:05:36;99366.56;;;18.98;100.00
7668;BME280;3876;42.204;24.686;2023-05-15T13:08:04;99373.22;;;19.02;100.00